Time;durP1;ratioP1;P1;durP2;ratioP2;P2;SDS_P1;SDS_P2;PMS_P1;PMS_P2;Temp;Humidity;BMP_temperature;BMP_pressure;BME280_temperature;BME280_humidity;BME280_pressure;Samples;Min_cycle;Max_cycle;Signal;HPM_P1;HPM_P2
2023/07/19 00:00:24;;;;;;;4.47;1.92;;;20.90;62.40;;;;;;5069394;28;20112;-66
2023/07/19 00:02:50;;;;;;;4.60;1.63;;;20.80;62.30;;;;;;5069060;28;20059;-66
2023/07/19 00:05:16;;;;;;;6.78;1.70;;;20.80;62.40;;;;;;5067805;28;20071;-66
2023/07/19 00:07:41;;;;;;;4.72;1.60;;;20.90;62.50;;;;;;5069695;28;20083;-66
2023/07/19 00:10:08;;;;;;;3.17;1.65;;;20.80;62.50;;;;;;5051324;28;20373;-66
2023/07/19 00:12:34;;;;;;;4.47;1.50;;;20.90;62.50;;;;;;5067837;28;20132;-66
2023/07/19 00:14:59;;;;;;;4.45;1.67;;;20.90;62.50;;;;;;5068067;28;20473;-66
2023/07/19 00:17:25;;;;;;;5.20;1.70;;;20.80;62.50;;;;;;5069184;28;20025;-66
2023/07/19 00:19:51;;;;;;;5.50;2.10;;;20.80;62.50;;;;;;5067757;28;20306;-66
2023/07/19 00:22:17;;;;;;;5.57;1.70;;;20.80;62.50;;;;;;5068185;28;20032;-66
2023/07/19 00:24:42;;;;;;;5.35;1.65;;;20.80;62.70;;;;;;5035232;28;20867;-66
2023/07/19 00:27:08;;;;;;;3.88;1.58;;;20.80;62.70;;;;;;5067919;28;20033;-66
2023/07/19 00:29:34;;;;;;;4.50;1.60;;;20.80;62.70;;;;;;5068265;28;20115;-66
2023/07/19 00:32:00;;;;;;;4.38;1.55;;;20.80;62.70;;;;;;5068473;28;20016;-66
2023/07/19 00:34:25;;;;;;;4.88;1.90;;;20.80;62.80;;;;;;5068872;28;20036;-66
2023/07/19 00:36:51;;;;;;;5.63;1.85;;;20.80;62.90;;;;;;5051206;28;20125;-66
2023/07/19 00:39:17;;;;;;;3.92;1.60;;;20.70;62.90;;;;;;5049267;28;20515;-66
2023/07/19 00:41:42;;;;;;;4.65;2.13;;;20.70;63.10;;;;;;5067220;28;20040;-66
2023/07/19 00:44:08;;;;;;;6.28;1.80;;;20.70;63.20;;;;;;5067908;28;20077;-66
2023/07/19 00:46:34;;;;;;;5.90;1.85;;;20.60;63.30;;;;;;5068198;28;20334;-66
2023/07/19 00:49:01;;;;;;;3.55;1.67;;;20.60;63.40;;;;;;5067455;28;20032;-66
2023/07/19 00:51:26;;;;;;;3.72;1.48;;;20.60;63.60;;;;;;5050812;28;20032;-66
2023/07/19 00:53:53;;;;;;;5.13;1.70;;;20.60;63.70;;;;;;5034626;28;20077;-66
2023/07/19 00:56:20;;;;;;;4.93;1.70;;;20.60;63.90;;;;;;5050434;28;20504;-66
2023/07/19 00:58:51;;;;;;;4.85;1.85;;;20.50;63.90;;;;;;5050619;28;20058;-66
2023/07/19 01:01:18;;;;;;;5.43;1.73;;;20.50;64.10;;;;;;5067428;28;20044;-66
2023/07/19 01:03:44;;;;;;;4.93;1.65;;;20.50;64.30;;;;;;5069911;28;20028;-66
2023/07/19 01:06:11;;;;;;;5.13;2.03;;;20.40;64.40;;;;;;5073107;28;20024;-66
2023/07/19 01:08:36;;;;;;;4.95;1.90;;;20.40;64.60;;;;;;5070374;28;20476;-66
2023/07/19 01:11:02;;;;;;;3.65;1.55;;;20.30;64.70;;;;;;5066623;28;20143;-66
2023/07/19 01:13:28;;;;;;;5.72;2.17;;;20.40;64.90;;;;;;5073462;28;20031;-66
2023/07/19 01:15:54;;;;;;;4.07;1.85;;;20.30;65.00;;;;;;5070007;28;20115;-65
2023/07/19 01:18:20;;;;;;;6.55;1.80;;;20.30;65.10;;;;;;5054038;28;20031;-66
2023/07/19 01:20:46;;;;;;;4.53;2.00;;;20.30;65.20;;;;;;5072344;28;20050;-65
2023/07/19 01:23:12;;;;;;;5.53;1.75;;;20.30;65.30;;;;;;5055088;28;20123;-66
2023/07/19 01:25:38;;;;;;;6.82;2.55;;;20.20;65.40;;;;;;5069786;28;20067;-66
2023/07/19 01:28:06;;;;;;;5.75;2.10;;;20.20;65.60;;;;;;5037185;28;20036;-66
2023/07/19 01:30:31;;;;;;;6.45;2.10;;;20.20;65.70;;;;;;5071185;28;20025;-66
2023/07/19 01:32:57;;;;;;;4.75;2.03;;;20.20;65.80;;;;;;5070273;28;20036;-66
2023/07/19 01:35:23;;;;;;;6.30;2.22;;;20.10;65.90;;;;;;5070921;28;20151;-66
2023/07/19 01:37:49;;;;;;;4.75;2.20;;;20.10;65.90;;;;;;5069329;28;20472;-66
2023/07/19 01:40:15;;;;;;;4.43;2.10;;;20.10;66.10;;;;;;5051511;28;20046;-66
2023/07/19 01:42:41;;;;;;;5.97;2.10;;;20.10;66.10;;;;;;5071376;28;20373;-66
2023/07/19 01:45:07;;;;;;;5.28;1.85;;;20.10;66.10;;;;;;5070425;28;20396;-66
2023/07/19 01:47:34;;;;;;;4.82;2.08;;;20.10;66.20;;;;;;5069718;28;20039;-66
2023/07/19 01:50:00;;;;;;;5.40;2.47;;;20.10;66.30;;;;;;5053842;28;20500;-66
2023/07/19 01:52:26;;;;;;;7.55;2.33;;;20.10;66.30;;;;;;5053616;28;20115;-66
2023/07/19 01:54:52;;;;;;;4.70;1.95;;;20.10;66.30;;;;;;5071663;28;20016;-66
2023/07/19 01:57:17;;;;;;;4.75;2.00;;;20.10;66.30;;;;;;5069048;28;20447;-65
2023/07/19 01:59:43;;;;;;;4.18;1.70;;;20.10;66.30;;;;;;5050218;28;21085;-66
2023/07/19 02:02:09;;;;;;;4.07;1.88;;;20.10;66.40;;;;;;5046795;28;20036;-66
2023/07/19 02:04:35;;;;;;;5.00;2.08;;;20.10;66.40;;;;;;5053410;28;20095;-66
2023/07/19 02:07:02;;;;;;;5.22;1.92;;;20.10;66.50;;;;;;5069212;28;20549;-66
2023/07/19 02:09:28;;;;;;;5.88;2.13;;;20.00;66.50;;;;;;5071996;28;20107;-66
2023/07/19 02:11:53;;;;;;;4.65;2.30;;;20.00;66.60;;;;;;5053020;28;20032;-66
2023/07/19 02:14:19;;;;;;;6.72;2.10;;;20.00;66.70;;;;;;5049909;28;20039;-66
2023/07/19 02:16:45;;;;;;;5.82;1.90;;;20.00;67.40;;;;;;5068930;28;20024;-66
2023/07/19 02:19:11;;;;;;;4.60;2.13;;;20.00;66.90;;;;;;5070592;28;20082;-66
2023/07/19 02:21:37;;;;;;;3.55;1.70;;;20.00;67.00;;;;;;5053872;28;20024;-66
2023/07/19 02:24:02;;;;;;;5.22;1.88;;;20.00;67.20;;;;;;5070602;28;20023;-66
2023/07/19 02:26:28;;;;;;;4.53;1.92;;;19.90;67.20;;;;;;5054176;28;20051;-66
2023/07/19 02:28:54;;;;;;;4.72;2.13;;;19.90;67.30;;;;;;5052217;28;20465;-65
2023/07/19 02:31:20;;;;;;;4.40;1.83;;;19.90;67.40;;;;;;5071395;28;20366;-66
2023/07/19 02:33:45;;;;;;;3.58;1.77;;;19.90;67.50;;;;;;5070404;28;20461;-65
2023/07/19 02:36:12;;;;;;;4.78;1.73;;;19.80;67.50;;;;;;5052484;28;20115;-66
2023/07/19 02:38:39;;;;;;;4.50;1.98;;;19.80;67.60;;;;;;5065423;28;20151;-66
2023/07/19 02:41:07;;;;;;;5.47;2.20;;;19.80;67.70;;;;;;5070302;28;20052;-66
2023/07/19 02:43:34;;;;;;;4.95;2.13;;;19.80;67.80;;;;;;5069166;28;20055;-66
2023/07/19 02:46:00;;;;;;;5.28;2.35;;;19.80;67.90;;;;;;5050874;28;20032;-66
2023/07/19 02:48:26;;;;;;;4.38;1.98;;;19.80;68.00;;;;;;5051067;28;20024;-66
2023/07/19 02:50:52;;;;;;;7.78;2.67;;;19.80;68.00;;;;;;5071660;28;20056;-66
2023/07/19 02:57:05;;;;;;;5.18;2.17;;;19.80;68.10;;;;;;5068457;28;20081;-66
2023/07/19 02:59:31;;;;;;;4.68;2.08;;;19.80;68.10;;;;;;5051864;28;20024;-66
2023/07/19 03:01:56;;;;;;;6.32;2.50;;;19.70;68.10;;;;;;5051813;28;20039;-66
2023/07/19 03:04:22;;;;;;;5.50;2.75;;;19.70;68.20;;;;;;5069155;28;20512;-66
2023/07/19 03:06:49;;;;;;;6.00;2.53;;;19.70;68.20;;;;;;5052593;28;20469;-66
2023/07/19 03:09:15;;;;;;;4.55;2.08;;;19.70;68.30;;;;;;5052413;28;20020;-66
2023/07/19 03:11:41;;;;;;;6.53;2.50;;;19.70;68.30;;;;;;5054330;28;20361;-66
2023/07/19 03:14:07;;;;;;;7.47;2.78;;;19.70;68.40;;;;;;5052016;28;20033;-65
2023/07/19 03:16:33;;;;;;;7.60;3.35;;;19.70;68.50;;;;;;5048019;28;20430;-66
2023/07/19 03:18:59;;;;;;;6.20;2.92;;;19.60;68.50;;;;;;5051781;28;20429;-66
2023/07/19 03:21:24;;;;;;;6.00;2.97;;;19.60;68.50;;;;;;5068385;28;20029;-66
2023/07/19 03:23:51;;;;;;;8.02;3.58;;;19.70;68.60;;;;;;5068696;28;20036;-66
2023/07/19 03:26:17;;;;;;;5.93;3.15;;;19.60;68.60;;;;;;5035794;28;20025;-65
2023/07/19 03:28:43;;;;;;;7.10;3.00;;;19.70;68.70;;;;;;5051479;28;20055;-66
2023/07/19 03:31:13;;;;;;;7.65;3.30;;;19.60;68.70;;;;;;5052447;28;20029;-66
2023/07/19 03:33:39;;;;;;;7.90;3.28;;;19.60;68.70;;;;;;5053165;28;20037;-66
2023/07/19 03:36:08;;;;;;;6.70;3.13;;;19.60;68.80;;;;;;5053071;28;20476;-66
2023/07/19 03:38:34;;;;;;;7.82;3.50;;;19.60;68.90;;;;;;5050927;28;20047;-66
2023/07/19 03:41:09;;;;;;;5.90;3.10;;;19.60;68.80;;;;;;5068587;28;20020;-66
2023/07/19 03:43:38;;;;;;;6.18;3.38;;;19.60;68.90;;;;;;5035101;28;20031;-65
2023/07/19 03:46:05;;;;;;;7.30;3.17;;;19.60;68.90;;;;;;5068200;28;20044;-66
2023/07/19 03:48:39;;;;;;;7.20;3.47;;;19.50;68.90;;;;;;5067620;27;20407;-65
2023/07/19 03:51:05;;;;;;;7.60;4.05;;;19.60;69.10;;;;;;5080920;28;20445;-65
2023/07/19 03:53:33;;;;;;;7.38;3.22;;;19.50;69.00;;;;;;5063728;28;20024;-65
2023/07/19 03:56:00;;;;;;;7.28;3.28;;;19.50;69.00;;;;;;5078969;28;20029;-65
2023/07/19 03:58:27;;;;;;;7.57;3.15;;;19.50;69.00;;;;;;5053857;28;20349;-65
2023/07/19 04:00:54;;;;;;;8.25;3.15;;;19.50;69.00;;;;;;5070679;28;20013;-65
2023/07/19 04:03:21;;;;;;;6.78;2.65;;;19.50;69.00;;;;;;5070349;28;20418;-66
2023/07/19 04:05:47;;;;;;;5.78;3.03;;;19.50;69.00;;;;;;5069725;28;20044;-65
2023/07/19 04:08:14;;;;;;;7.35;3.20;;;19.50;69.10;;;;;;5060370;28;20059;-65
2023/07/19 04:10:40;;;;;;;8.07;2.72;;;19.60;69.20;;;;;;5067564;28;20465;-65
2023/07/19 04:13:06;;;;;;;5.68;2.92;;;19.60;69.10;;;;;;5067296;28;20027;-65
2023/07/19 04:15:32;;;;;;;6.78;2.80;;;19.60;69.10;;;;;;5049170;28;20805;-65
2023/07/19 04:17:58;;;;;;;7.20;2.60;;;19.60;69.00;;;;;;5063992;28;20032;-65
2023/07/19 04:20:25;;;;;;;7.47;2.50;;;19.60;69.00;;;;;;5080771;28;20043;-65
2023/07/19 04:22:51;;;;;;;6.88;2.70;;;19.70;68.90;;;;;;5064555;28;20028;-65
2023/07/19 04:25:18;;;;;;;5.82;2.35;;;19.70;68.80;;;;;;5065795;28;20326;-65
2023/07/19 04:27:44;;;;;;;6.45;2.33;;;19.70;68.80;;;;;;5065218;28;20024;-65
2023/07/19 04:30:10;;;;;;;6.82;2.45;;;19.70;68.60;;;;;;5064642;28;20381;-65
2023/07/19 04:32:36;;;;;;;6.55;2.53;;;19.70;68.50;;;;;;5062455;28;20136;-65
2023/07/19 04:35:02;;;;;;;6.97;2.40;;;19.70;68.50;;;;;;5061430;28;20935;-65
2023/07/19 04:37:28;;;;;;;6.30;2.65;;;19.80;68.50;;;;;;5065600;28;20035;-65
2023/07/19 04:39:54;;;;;;;5.50;2.35;;;19.80;68.50;;;;;;5063696;28;20048;-65
2023/07/19 04:42:23;;;;;;;5.80;2.28;;;19.80;68.50;;;;;;5064679;28;20021;-65
2023/07/19 04:44:51;;;;;;;6.55;2.60;;;19.80;68.40;;;;;;5063564;28;20065;-65
2023/07/19 04:47:18;;;;;;;4.68;2.15;;;19.80;68.30;;;;;;5064096;28;20086;-65
2023/07/19 04:49:44;;;;;;;5.25;2.17;;;19.80;68.30;;;;;;5065224;28;20033;-65
2023/07/19 04:52:10;;;;;;;6.65;2.40;;;19.90;68.30;;;;;;5066362;28;20032;-65
2023/07/19 04:54:36;;;;;;;6.90;2.72;;;19.90;68.20;;;;;;5065390;28;20024;-65
2023/07/19 04:57:02;;;;;;;5.63;2.50;;;19.90;68.10;;;;;;5064376;28;20059;-65
2023/07/19 04:59:28;;;;;;;5.28;2.30;;;20.00;68.10;;;;;;5055018;28;20079;-65
2023/07/19 05:01:54;;;;;;;4.82;2.40;;;20.00;68.20;;;;;;5051115;28;20024;-65
2023/07/19 05:04:20;;;;;;;5.72;2.38;;;20.00;68.10;;;;;;5064696;28;20021;-65
2023/07/19 05:06:46;;;;;;;7.32;2.97;;;20.00;68.00;;;;;;5053135;28;20086;-65
2023/07/19 05:09:12;;;;;;;8.32;3.47;;;20.00;67.70;;;;;;5053940;28;20510;-65
2023/07/19 05:11:39;;;;;;;6.22;2.60;;;20.00;67.50;;;;;;5051674;28;20025;-65
2023/07/19 05:14:05;;;;;;;6.63;2.70;;;20.10;67.40;;;;;;5054501;28;20422;-65
2023/07/19 05:16:33;;;;;;;7.18;2.60;;;20.10;67.30;;;;;;5051571;28;20033;-65
2023/07/19 05:19:08;;;;;;;7.25;2.85;;;20.10;67.20;;;;;;5066808;28;20025;-65
2023/07/19 05:21:34;;;;;;;4.78;2.33;;;20.10;67.20;;;;;;5049056;28;20021;-65
2023/07/19 05:24:00;;;;;;;6.22;2.80;;;20.10;67.40;;;;;;5049354;28;20052;-65
2023/07/19 05:26:26;;;;;;;6.75;2.88;;;20.10;67.40;;;;;;5054575;28;20025;-65
2023/07/19 05:28:52;;;;;;;6.45;2.83;;;20.10;67.50;;;;;;5055660;28;20017;-65
2023/07/19 05:31:18;;;;;;;6.88;2.83;;;20.10;67.60;;;;;;5056055;28;20371;-65
2023/07/19 05:33:43;;;;;;;8.80;3.22;;;20.20;67.80;;;;;;5068610;28;20032;-65
2023/07/19 05:36:09;;;;;;;6.15;2.92;;;20.20;67.60;;;;;;5054942;28;20111;-65
2023/07/19 05:38:35;;;;;;;7.43;2.97;;;20.20;67.40;;;;;;5055682;28;20063;-65
2023/07/19 05:41:02;;;;;;;7.82;3.13;;;20.30;67.30;;;;;;5052613;28;20033;-65
2023/07/19 05:43:29;;;;;;;8.30;3.25;;;20.30;67.10;;;;;;5043147;28;20327;-65
2023/07/19 05:46:05;;;;;;;8.00;3.33;;;20.30;66.90;;;;;;5054138;28;20402;-65
2023/07/19 05:48:31;;;;;;;6.95;3.13;;;20.40;66.70;;;;;;5055349;28;20045;-65
2023/07/19 05:50:57;;;;;;;7.50;3.63;;;20.50;66.60;;;;;;5055127;28;20025;-65
2023/07/19 05:53:23;;;;;;;9.07;4.00;;;20.60;66.50;;;;;;5055033;28;20013;-65
2023/07/19 05:55:49;;;;;;;8.32;3.88;;;20.70;66.20;;;;;;5052629;28;20056;-65
2023/07/19 05:58:14;;;;;;;8.77;3.97;;;20.70;65.90;;;;;;5057184;28;20020;-65
2023/07/19 06:00:40;;;;;;;7.53;3.55;;;20.70;65.80;;;;;;5055451;28;20021;-65
2023/07/19 06:03:06;;;;;;;9.07;4.15;;;20.70;65.80;;;;;;5055783;28;20485;-65
2023/07/19 06:05:32;;;;;;;8.70;3.95;;;20.70;65.80;;;;;;5053241;28;20361;-65
2023/07/19 06:07:58;;;;;;;8.20;4.00;;;20.80;65.80;;;;;;5055418;28;20063;-65
2023/07/19 06:10:24;;;;;;;9.13;4.10;;;20.80;65.60;;;;;;5054694;28;20384;-65
2023/07/19 06:12:50;;;;;;;9.10;3.88;;;20.80;65.50;;;;;;5055141;28;20021;-65
2023/07/19 06:15:16;;;;;;;8.43;4.40;;;20.90;65.40;;;;;;5060633;28;20413;-65
2023/07/19 06:17:42;;;;;;;8.63;4.07;;;20.90;65.30;;;;;;5054920;28;20025;-65
2023/07/19 06:20:12;;;;;;;8.20;3.55;;;21.00;65.30;;;;;;5042784;28;20394;-65
2023/07/19 06:22:38;;;;;;;9.68;4.10;;;21.00;65.30;;;;;;5054939;28;20033;-65
2023/07/19 06:25:05;;;;;;;8.38;3.72;;;21.20;65.10;;;;;;5068397;28;20021;-65
2023/07/19 06:27:31;;;;;;;7.20;3.58;;;21.20;65.00;;;;;;5042830;28;20397;-65
2023/07/19 06:29:57;;;;;;;8.77;3.80;;;21.20;65.10;;;;;;5054270;28;20021;-65
2023/07/19 06:32:23;;;;;;;6.93;3.55;;;21.30;65.10;;;;;;5054047;28;20024;-65
2023/07/19 06:34:49;;;;;;;7.03;3.67;;;21.40;64.70;;;;;;5053671;28;20408;-65
2023/07/19 06:37:15;;;;;;;10.25;3.95;;;21.50;64.40;;;;;;5047888;28;20053;-65
2023/07/19 06:39:40;;;;;;;8.57;3.42;;;21.50;64.30;;;;;;5050760;28;20021;-65
2023/07/19 06:42:06;;;;;;;9.43;3.70;;;21.50;64.20;;;;;;5051897;28;20219;-65
2023/07/19 06:44:33;;;;;;;15.40;3.63;;;21.60;64.00;;;;;;5051076;28;20029;-65
2023/07/19 06:46:59;;;;;;;9.38;3.72;;;21.60;63.70;;;;;;5052103;28;20037;-66
2023/07/19 06:49:25;;;;;;;7.47;3.45;;;21.70;63.70;;;;;;5065820;28;20033;-65
2023/07/19 06:51:51;;;;;;;8.15;3.70;;;21.80;63.60;;;;;;5054523;28;20476;-65
2023/07/19 06:54:17;;;;;;;7.57;4.13;;;22.00;63.40;;;;;;5060652;28;20057;-65
2023/07/19 06:56:43;;;;;;;8.38;3.67;;;22.20;62.70;;;;;;5053541;28;20025;-64
2023/07/19 06:59:09;;;;;;;6.63;3.33;;;22.40;62.10;;;;;;5054377;28;20109;-64
2023/07/19 07:01:35;;;;;;;7.68;3.60;;;22.40;62.00;;;;;;5040435;28;20152;-64
2023/07/19 07:04:01;;;;;;;6.95;3.10;;;22.40;62.10;;;;;;5054682;28;20116;-64
2023/07/19 07:06:27;;;;;;;7.68;3.22;;;22.40;61.90;;;;;;5053817;28;20115;-64
2023/07/19 07:08:53;;;;;;;9.13;3.53;;;22.40;61.80;;;;;;5050519;28;20394;-65
2023/07/19 07:11:18;;;;;;;8.20;3.60;;;22.30;62.00;;;;;;5054436;28;20048;-64
2023/07/19 07:13:44;;;;;;;6.50;2.92;;;22.20;62.10;;;;;;5054219;28;20032;-65
2023/07/19 07:16:12;;;;;;;8.32;3.40;;;22.20;62.10;;;;;;5054357;28;20037;-64
2023/07/19 07:18:37;;;;;;;7.15;3.08;;;22.10;61.80;;;;;;5050709;28;20115;-64
2023/07/19 07:21:03;;;;;;;7.70;3.22;;;22.10;61.70;;;;;;5051112;28;20108;-64
2023/07/19 07:23:29;;;;;;;9.48;3.67;;;22.10;61.90;;;;;;5047311;28;20041;-64
2023/07/19 07:25:55;;;;;;;9.02;3.28;;;22.00;61.80;;;;;;5058530;28;20032;-64
2023/07/19 07:28:21;;;;;;;7.90;3.67;;;22.00;61.90;;;;;;5061184;28;20432;-65
2023/07/19 07:30:47;;;;;;;8.20;3.08;;;22.10;61.80;;;;;;5054617;28;20037;-65
2023/07/19 07:33:12;;;;;;;7.38;3.28;;;22.10;61.30;;;;;;5045589;28;20037;-64
2023/07/19 07:35:38;;;;;;;6.75;3.17;;;22.20;61.20;;;;;;5051582;28;20033;-65
2023/07/19 07:38:04;;;;;;;6.38;2.88;;;22.30;60.80;;;;;;5052334;28;20111;-65
2023/07/19 07:40:30;;;;;;;8.35;3.67;;;22.20;60.80;;;;;;5048746;28;20028;-64
2023/07/19 07:42:55;;;;;;;10.77;4.15;;;22.20;61.00;;;;;;5047208;28;20373;-64
2023/07/19 07:45:21;;;;;;;6.55;3.25;;;22.50;60.70;;;;;;5049138;28;20029;-64
2023/07/19 07:47:47;;;;;;;9.50;3.45;;;22.70;60.10;;;;;;5053668;28;20086;-65
2023/07/19 07:50:13;;;;;;;10.60;3.53;;;23.00;60.50;;;;;;5058672;28;20017;-65
2023/07/19 07:52:39;;;;;;;9.60;3.58;;;23.10;59.30;;;;;;5046338;28;20369;-65
2023/07/19 07:55:06;;;;;;;8.20;3.75;;;23.40;58.70;;;;;;5055623;28;20044;-66
2023/07/19 07:57:37;;;;;;;6.47;3.28;;;23.50;58.90;;;;;;5053600;28;20041;-66
2023/07/19 08:00:10;;;;;;;6.22;2.92;;;23.60;58.30;;;;;;5069017;28;20029;-66
2023/07/19 08:02:36;;;;;;;9.95;3.45;;;23.70;57.70;;;;;;5052662;28;20064;-67
2023/07/19 08:05:04;;;;;;;7.03;3.08;;;23.80;57.40;;;;;;5047755;28;20029;-66
2023/07/19 08:07:30;;;;;;;7.22;2.90;;;24.00;57.00;;;;;;5032627;28;20025;-66
2023/07/19 08:09:56;;;;;;;5.47;2.65;;;24.20;56.50;;;;;;5062795;28;20032;-65
2023/07/19 08:12:22;;;;;;;9.00;3.05;;;24.50;56.20;;;;;;5053497;28;20040;-67
2023/07/19 08:14:48;;;;;;;7.60;2.90;;;24.70;55.90;;;;;;5051999;28;20040;-66
2023/07/19 08:17:13;;;;;;;6.63;2.38;;;24.90;55.50;;;;;;5052753;28;20029;-66
2023/07/19 08:19:39;;;;;;;7.57;2.60;;;24.90;55.20;;;;;;5053712;28;20430;-65
2023/07/19 08:22:05;;;;;;;10.23;2.47;;;25.00;55.00;;;;;;5053594;28;20406;-66
2023/07/19 08:24:31;;;;;;;7.10;3.05;;;25.20;54.50;;;;;;5050243;28;20037;-66
2023/07/19 08:26:58;;;;;;;7.53;2.75;;;25.40;54.20;;;;;;5038342;28;20033;-66
2023/07/19 08:29:26;;;;;;;5.68;2.33;;;25.50;53.90;;;;;;5052563;28;20438;-66
2023/07/19 08:31:52;;;;;;;7.13;2.55;;;25.50;54.40;;;;;;5052697;28;20036;-66
2023/07/19 08:34:18;;;;;;;8.95;2.90;;;25.50;53.70;;;;;;5054452;28;20070;-66
2023/07/19 08:36:45;;;;;;;8.93;2.97;;;25.40;54.00;;;;;;5050194;28;20039;-66
2023/07/19 08:39:11;;;;;;;7.80;3.17;;;25.30;54.20;;;;;;5057201;28;20036;-66
2023/07/19 08:41:37;;;;;;;6.93;2.85;;;25.40;54.20;;;;;;5048808;28;20037;-66
2023/07/19 08:44:04;;;;;;;7.68;2.80;;;25.50;53.90;;;;;;5050495;28;20033;-66
2023/07/19 08:46:32;;;;;;;8.23;2.58;;;25.60;53.80;;;;;;5048820;28;20033;-66
2023/07/19 08:48:59;;;;;;;6.00;2.50;;;25.60;53.80;;;;;;5056352;28;20128;-66
2023/07/19 08:51:26;;;;;;;5.63;2.20;;;25.70;53.60;;;;;;5055877;28;20024;-66
2023/07/19 08:53:51;;;;;;;5.25;2.17;;;25.70;53.30;;;;;;5057354;28;20029;-66
2023/07/19 08:56:18;;;;;;;6.22;2.30;;;25.70;53.30;;;;;;5054489;28;20051;-66
2023/07/19 08:58:44;;;;;;;7.35;2.70;;;25.40;53.40;;;;;;5056720;28;20041;-66
2023/07/19 09:01:11;;;;;;;8.23;2.90;;;25.40;53.80;;;;;;5056284;28;20123;-66
2023/07/19 09:03:37;;;;;;;5.55;2.45;;;25.10;53.80;;;;;;5057002;28;20458;-66
2023/07/19 09:06:03;;;;;;;8.13;2.65;;;24.90;54.20;;;;;;5055827;28;20021;-66
2023/07/19 09:08:37;;;;;;;6.30;2.58;;;24.70;54.40;;;;;;5046380;28;20060;-66
2023/07/19 09:11:03;;;;;;;10.43;2.63;;;24.50;54.80;;;;;;5056802;28;20033;-65
2023/07/19 09:13:33;;;;;;;7.43;2.63;;;24.30;55.00;;;;;;5056985;28;20059;-66
2023/07/19 09:16:02;;;;;;;6.60;2.55;;;24.20;55.40;;;;;;5054163;28;20039;-66
2023/07/19 09:18:30;;;;;;;7.43;2.58;;;24.10;55.90;;;;;;5053381;28;20033;-66
2023/07/19 09:20:59;;;;;;;6.72;2.72;;;24.20;56.30;;;;;;5056545;28;20048;-66
2023/07/19 09:23:25;;;;;;;6.60;2.70;;;24.30;56.80;;;;;;5056681;28;20323;-66
2023/07/19 09:25:55;;;;;;;9.02;2.67;;;24.50;55.90;;;;;;5055014;28;20033;-66
2023/07/19 09:28:23;;;;;;;6.65;2.55;;;24.80;55.50;;;;;;5055383;28;20128;-66
2023/07/19 09:31:15;;;;;;;10.20;3.15;;;25.20;55.10;;;;;;5056265;28;20110;-66
2023/07/19 09:33:41;;;;;;;7.50;2.72;;;25.60;54.30;;;;;;5054543;28;20446;-66
2023/07/19 09:36:07;;;;;;;7.38;2.15;;;25.90;53.90;;;;;;5071921;28;20028;-66
2023/07/19 09:38:33;;;;;;;7.30;2.60;;;26.20;53.40;;;;;;5053421;28;20370;-66
2023/07/19 09:40:59;;;;;;;7.55;3.13;;;26.10;53.10;;;;;;5049125;28;20028;-66
2023/07/19 09:43:25;;;;;;;5.53;2.33;;;25.90;53.20;;;;;;5044592;28;20037;-66
2023/07/19 09:45:51;;;;;;;7.05;2.72;;;25.70;53.60;;;;;;5055875;28;20041;-66
2023/07/19 09:48:20;;;;;;;8.00;2.65;;;25.30;54.00;;;;;;5053868;28;20092;-66
2023/07/19 09:50:49;;;;;;;6.35;2.30;;;25.00;54.00;;;;;;5055794;28;20082;-66
2023/07/19 09:53:15;;;;;;;6.43;2.13;;;24.80;54.20;;;;;;5055983;28;20338;-66
2023/07/19 09:55:45;;;;;;;7.40;2.40;;;24.80;54.20;;;;;;5054925;28;20056;-66
2023/07/19 09:58:13;;;;;;;6.97;2.42;;;25.10;53.70;;;;;;5053810;28;20454;-66
2023/07/19 10:00:39;;;;;;;5.85;2.40;;;25.40;53.20;;;;;;5055348;28;20021;-66
2023/07/19 10:03:08;;;;;;;5.88;1.83;;;25.80;52.70;;;;;;5055757;28;20350;-66
2023/07/19 10:05:37;;;;;;;7.75;2.38;;;26.20;52.00;;;;;;5055631;28;20033;-66
2023/07/19 10:08:05;;;;;;;6.30;2.17;;;26.40;51.30;;;;;;5054440;28;20100;-66
2023/07/19 10:10:39;;;;;;;5.57;2.03;;;26.60;50.80;;;;;;5054030;28;20075;-66
2023/07/19 10:13:08;;;;;;;5.43;2.20;;;26.80;50.60;;;;;;5055605;28;20025;-66
2023/07/19 10:15:36;;;;;;;6.20;2.38;;;26.90;50.40;;;;;;5055808;28;20120;-66
2023/07/19 10:18:02;;;;;;;6.80;1.92;;;26.70;50.40;;;;;;5053687;28;20158;-66
2023/07/19 10:20:35;;;;;;;5.35;2.10;;;26.50;50.50;;;;;;5051975;28;20040;-66
2023/07/19 10:23:06;;;;;;;4.65;2.10;;;26.30;50.70;;;;;;5055747;28;20171;-66
2023/07/19 10:25:31;;;;;;;7.07;2.22;;;26.00;50.70;;;;;;5055128;28;20116;-66
2023/07/19 10:28:05;;;;;;;5.38;1.92;;;25.80;51.20;;;;;;5054350;28;20128;-66
2023/07/19 10:30:46;;;;;;;6.47;2.35;;;25.70;51.40;;;;;;5047314;28;20024;-66
2023/07/19 10:33:19;;;;;;;5.03;2.30;;;25.50;51.40;;;;;;5055623;28;20051;-66
2023/07/19 10:35:45;;;;;;;5.32;2.28;;;25.40;51.70;;;;;;5054086;28;20362;-66
2023/07/19 10:38:18;;;;;;;8.98;2.80;;;25.20;51.80;;;;;;5054247;28;20028;-66
2023/07/19 10:40:47;;;;;;;6.72;2.75;;;25.10;51.80;;;;;;5047612;28;20373;-66
2023/07/19 10:43:14;;;;;;;5.72;2.22;;;25.30;52.20;;;;;;5055422;28;20032;-66
2023/07/19 10:45:40;;;;;;;6.20;2.20;;;25.70;52.50;;;;;;5070822;28;20067;-66
2023/07/19 10:48:06;;;;;;;7.97;2.38;;;26.00;52.50;;;;;;5054730;28;20431;-66
2023/07/19 10:50:32;;;;;;;6.55;2.50;;;26.20;52.60;;;;;;5053124;28;20075;-66
2023/07/19 10:52:58;;;;;;;5.68;2.60;;;26.10;52.70;;;;;;5054663;28;20029;-66
2023/07/19 10:55:26;;;;;;;8.25;2.45;;;25.90;53.00;;;;;;5054690;28;20108;-66
2023/07/19 10:57:52;;;;;;;5.78;2.30;;;25.90;53.10;;;;;;5053952;28;20407;-66
2023/07/19 11:00:18;;;;;;;6.55;2.20;;;25.80;53.20;;;;;;5046982;28;20065;-66
2023/07/19 11:02:43;;;;;;;6.20;2.10;;;25.90;53.10;;;;;;5052701;28;20025;-66
2023/07/19 11:05:09;;;;;;;3.83;1.90;;;26.10;52.90;;;;;;5055040;28;20384;-66
2023/07/19 11:07:36;;;;;;;7.93;2.55;;;26.20;52.50;;;;;;5054667;28;20029;-66
2023/07/19 11:10:06;;;;;;;4.55;2.17;;;26.30;52.60;;;;;;5047375;28;20033;-66
2023/07/19 11:12:33;;;;;;;6.90;2.42;;;26.20;52.80;;;;;;5048516;28;20082;-66
2023/07/19 11:15:00;;;;;;;7.03;2.45;;;26.00;53.00;;;;;;5051689;28;20108;-67
2023/07/19 11:17:28;;;;;;;7.70;2.30;;;25.90;53.40;;;;;;5037442;28;20344;-67
2023/07/19 11:19:55;;;;;;;7.82;2.20;;;25.80;53.60;;;;;;5048299;28;20024;-67
2023/07/19 11:22:23;;;;;;;7.57;2.80;;;25.80;53.90;;;;;;5028029;28;20040;-67
2023/07/19 11:24:50;;;;;;;6.35;2.20;;;25.80;54.10;;;;;;5052228;28;20372;-67
2023/07/19 11:27:19;;;;;;;6.07;2.20;;;26.00;54.00;;;;;;5049273;28;20096;-66
2023/07/19 11:29:49;;;;;;;5.35;2.10;;;26.40;53.60;;;;;;5044604;28;20477;-67
2023/07/19 11:32:23;;;;;;;6.95;2.35;;;26.70;52.80;;;;;;5051162;28;20104;-66
2023/07/19 11:34:57;;;;;;;5.13;1.85;;;27.00;52.20;;;;;;5053829;28;20043;-67
2023/07/19 11:37:29;;;;;;;5.82;2.17;;;27.00;51.90;;;;;;5051866;28;20029;-66
2023/07/19 11:39:57;;;;;;;7.55;2.38;;;26.80;51.90;;;;;;5053301;28;20117;-67
2023/07/19 11:42:43;;;;;;;6.07;2.28;;;26.70;51.90;;;;;;5049416;28;20032;-66
2023/07/19 11:45:19;;;;;;;6.63;2.40;;;26.50;51.90;;;;;;5043082;28;20369;-66
2023/07/19 11:47:48;;;;;;;7.60;2.55;;;26.30;52.20;;;;;;5043421;28;20064;-66
2023/07/19 11:50:13;;;;;;;6.75;3.10;;;26.00;52.50;;;;;;5044419;28;20069;-66
2023/07/19 11:52:54;;;;;;;7.38;2.55;;;25.80;52.80;;;;;;5042997;28;20045;-67
2023/07/19 11:55:21;;;;;;;7.83;2.77;;;25.60;53.30;;;;;;5048760;28;20062;-66
2023/07/19 11:57:49;;;;;;;5.68;2.60;;;25.40;53.80;;;;;;5046972;28;20025;-66
2023/07/19 12:00:16;;;;;;;6.90;2.58;;;25.30;54.20;;;;;;5043833;28;20029;-66
2023/07/19 12:02:46;;;;;;;6.75;2.00;;;25.10;54.40;;;;;;5050112;28;20029;-66
2023/07/19 12:05:14;;;;;;;6.40;2.63;;;25.10;54.80;;;;;;5046352;28;20040;-66
2023/07/19 12:07:40;;;;;;;5.93;2.30;;;25.00;55.10;;;;;;5050363;28;20361;-66
2023/07/19 12:10:07;;;;;;;6.20;2.60;;;25.00;55.00;;;;;;5053959;28;20024;-66
2023/07/19 12:12:33;;;;;;;6.07;2.35;;;24.90;54.90;;;;;;5048200;28;20104;-66
2023/07/19 12:15:08;;;;;;;4.38;2.00;;;24.90;55.10;;;;;;5052010;28;20033;-66
2023/07/19 12:17:36;;;;;;;5.97;2.45;;;24.80;55.30;;;;;;5046165;28;20033;-66
2023/07/19 12:20:23;;;;;;;6.53;2.40;;;24.70;55.90;;;;;;5050820;28;20120;-67
2023/07/19 12:22:48;;;;;;;8.60;2.58;;;24.60;57.00;;;;;;5057956;28;20041;-66
2023/07/19 12:25:14;;;;;;;6.90;2.90;;;24.30;58.30;;;;;;5043595;28;20079;-66
2023/07/19 12:27:42;;;;;;;7.70;2.60;;;24.10;59.50;;;;;;5045565;28;20491;-66
2023/07/19 12:30:09;;;;;;;8.35;2.83;;;23.90;60.50;;;;;;5050951;28;20087;-66
2023/07/19 12:32:36;;;;;;;7.60;2.63;;;23.70;61.50;;;;;;5045593;28;20029;-66
2023/07/19 12:35:02;;;;;;;9.55;3.00;;;23.60;62.20;;;;;;5042011;28;20331;-66
2023/07/19 12:37:28;;;;;;;7.53;2.75;;;23.50;62.70;;;;;;5049524;28;20036;-66
2023/07/19 12:39:53;;;;;;;8.23;3.20;;;23.50;63.20;;;;;;5052154;28;20035;-66
2023/07/19 12:42:19;;;;;;;8.27;3.38;;;23.50;63.90;;;;;;5055946;28;20048;-66
2023/07/19 12:44:45;;;;;;;5.25;2.28;;;23.60;64.60;;;;;;5055818;28;20029;-66
2023/07/19 12:47:11;;;;;;;6.43;2.40;;;23.80;64.60;;;;;;5054496;28;20100;-66